createdAt,value
2023-05-05T00:02:15.360Z,5.50
2023-05-05T00:04:42.538Z,4.82
2023-05-05T00:07:09.737Z,5.35
2023-05-05T00:09:36.888Z,5.25
2023-05-05T00:12:04.071Z,5.15
2023-05-05T00:14:31.236Z,5.28
2023-05-05T00:16:58.392Z,5.65
2023-05-05T00:19:25.571Z,5.78
2023-05-05T00:21:52.714Z,5.35
2023-05-05T00:24:19.864Z,5.30
2023-05-05T00:26:47.235Z,4.72
2023-05-05T00:29:14.457Z,5.18
2023-05-05T00:31:41.672Z,5.10
2023-05-05T00:34:08.912Z,4.53
2023-05-05T00:36:36.066Z,5.13
2023-05-05T00:39:03.264Z,5.80
2023-05-05T00:41:30.424Z,4.88
2023-05-05T00:43:57.767Z,4.65
2023-05-05T00:46:25.702Z,4.63
2023-05-05T00:48:53.120Z,4.53
2023-05-05T00:51:21.098Z,4.85
2023-05-05T00:53:48.572Z,4.72
2023-05-05T00:56:17.696Z,4.60
2023-05-05T00:58:45.088Z,4.72
2023-05-05T01:01:13.582Z,4.60
2023-05-05T01:03:43.949Z,4.38
2023-05-05T01:06:34.018Z,4.50
2023-05-05T01:09:15.352Z,4.65
2023-05-05T01:11:42.628Z,4.78
2023-05-05T01:14:09.747Z,4.90
2023-05-05T01:16:38.860Z,4.70
2023-05-05T01:19:27.014Z,5.10
2023-05-05T01:21:56.754Z,4.32
2023-05-05T01:24:42.885Z,5.30
2023-05-05T01:27:13.047Z,4.63
2023-05-05T01:29:59.147Z,4.25
2023-05-05T01:35:01.543Z,4.55
2023-05-05T01:37:34.788Z,4.93
2023-05-05T01:40:04.309Z,3.85
2023-05-05T01:42:31.950Z,4.35
2023-05-05T01:44:59.553Z,3.90
2023-05-05T01:47:27.234Z,4.13
2023-05-05T01:49:54.523Z,4.55
2023-05-05T01:52:22.664Z,3.80
2023-05-05T01:54:50.829Z,4.35
2023-05-05T01:57:18.319Z,4.40
2023-05-05T01:59:45.670Z,4.57
2023-05-05T02:02:13.785Z,4.40
2023-05-05T02:04:43.513Z,3.92
2023-05-05T02:07:11.897Z,4.15
2023-05-05T02:09:39.448Z,3.40
2023-05-05T02:12:06.982Z,3.80
2023-05-05T02:14:34.835Z,4.30
2023-05-05T02:17:02.661Z,4.10
2023-05-05T02:19:31.097Z,3.75
2023-05-05T02:21:58.542Z,4.53
2023-05-05T02:24:26.522Z,4.32
2023-05-05T02:26:55.261Z,3.97
2023-05-05T02:29:29.835Z,4.28
2023-05-05T02:32:01.356Z,4.18
2023-05-05T02:34:28.898Z,4.55
2023-05-05T02:36:58.693Z,3.80
2023-05-05T02:39:28.105Z,3.75
2023-05-05T02:41:55.948Z,3.80
2023-05-05T02:44:25.292Z,3.90
2023-05-05T02:46:52.730Z,3.58
2023-05-05T02:49:20.147Z,3.63
2023-05-05T02:51:47.430Z,4.10
2023-05-05T02:54:14.638Z,3.75
2023-05-05T02:56:43.878Z,4.07
2023-05-05T02:59:25.121Z,3.70
2023-05-05T03:01:56.760Z,3.50
2023-05-05T03:04:28.039Z,3.72
2023-05-05T03:06:58.346Z,3.65
2023-05-05T03:09:28.340Z,4.22
2023-05-05T03:12:03.768Z,3.50
2023-05-05T03:14:33.620Z,3.92
2023-05-05T03:17:02.044Z,3.67
2023-05-05T03:19:30.255Z,3.60
2023-05-05T03:21:57.507Z,3.90
2023-05-05T03:24:24.952Z,3.75
2023-05-05T03:26:53.445Z,3.55
2023-05-05T03:29:20.666Z,3.65
2023-05-05T03:31:47.906Z,3.88
2023-05-05T03:34:15.276Z,3.40
2023-05-05T03:36:42.504Z,3.47
2023-05-05T03:39:10.739Z,3.38
2023-05-05T03:41:37.949Z,3.30
2023-05-05T03:44:05.245Z,3.65
2023-05-05T03:46:32.384Z,3.25
2023-05-05T03:48:59.554Z,3.58
2023-05-05T03:51:27.073Z,3.15
2023-05-05T03:53:54.356Z,3.47
2023-05-05T03:56:21.544Z,3.88
2023-05-05T03:58:48.697Z,3.50
2023-05-05T04:01:15.908Z,3.30
2023-05-05T04:03:43.210Z,3.55
2023-05-05T04:06:10.582Z,3.60
2023-05-05T04:08:37.726Z,3.60
2023-05-05T04:11:05.115Z,3.80
2023-05-05T04:13:32.291Z,3.75
2023-05-05T04:15:59.843Z,3.80
2023-05-05T04:18:27.019Z,3.60
2023-05-05T04:20:54.215Z,3.97
2023-05-05T04:23:21.371Z,3.63
2023-05-05T04:25:48.654Z,3.45
2023-05-05T04:28:16.311Z,3.50
2023-05-05T04:30:43.449Z,3.85
2023-05-05T04:33:10.627Z,3.80
2023-05-05T04:35:37.905Z,4.00
2023-05-05T04:38:05.052Z,3.78
2023-05-05T04:40:32.263Z,3.60
2023-05-05T04:42:59.418Z,4.10
2023-05-05T04:45:26.723Z,3.65
2023-05-05T04:47:53.890Z,3.72
2023-05-05T04:50:21.158Z,3.65
2023-05-05T04:52:48.608Z,3.78
2023-05-05T04:55:15.853Z,3.30
2023-05-05T04:57:42.996Z,3.85
2023-05-05T05:00:10.674Z,4.05
2023-05-05T05:02:38.261Z,3.83
2023-05-05T05:05:05.724Z,3.55
2023-05-05T05:07:32.934Z,4.40
2023-05-05T05:10:00.208Z,4.00
2023-05-05T05:12:27.326Z,4.05
2023-05-05T05:14:54.520Z,4.93
2023-05-05T05:17:22.529Z,5.30
2023-05-05T05:19:49.749Z,7.30
2023-05-05T05:22:16.915Z,7.25
2023-05-05T05:24:44.184Z,6.55
2023-05-05T05:27:11.682Z,6.60
2023-05-05T05:29:38.883Z,7.00
2023-05-05T05:32:08.716Z,9.13
2023-05-05T05:34:36.107Z,10.88
2023-05-05T05:37:03.351Z,9.38
2023-05-05T05:39:30.576Z,8.43
2023-05-05T05:41:57.728Z,8.60
2023-05-05T05:44:25.048Z,8.23
2023-05-05T05:46:52.228Z,7.70
2023-05-05T05:49:19.362Z,8.98
2023-05-05T05:51:46.545Z,9.15
2023-05-05T05:54:13.749Z,9.98
2023-05-05T05:56:40.897Z,9.65
2023-05-05T05:59:10.038Z,9.10
2023-05-05T06:01:37.269Z,9.38
2023-05-05T06:04:04.596Z,8.68
2023-05-05T06:06:32.000Z,8.35
2023-05-05T06:08:59.601Z,7.95
2023-05-05T06:11:26.898Z,9.18
2023-05-05T06:13:54.085Z,7.95
2023-05-05T06:16:21.278Z,8.32
2023-05-05T06:18:48.538Z,8.27
2023-05-05T06:21:15.740Z,8.43
2023-05-05T06:23:42.869Z,8.27
2023-05-05T06:26:10.054Z,8.63
2023-05-05T06:28:37.488Z,8.07
2023-05-05T06:31:04.690Z,8.90
2023-05-05T06:33:31.874Z,8.90
2023-05-05T06:35:59.041Z,8.95
2023-05-05T06:38:26.260Z,10.02
2023-05-05T06:40:53.420Z,8.93
2023-05-05T06:43:20.558Z,9.57
2023-05-05T06:45:47.693Z,10.00
2023-05-05T06:48:14.842Z,9.20
2023-05-05T06:50:42.321Z,9.02
2023-05-05T06:53:09.484Z,8.98
2023-05-05T06:55:36.720Z,9.73
2023-05-05T06:58:03.926Z,9.25
2023-05-05T07:00:31.248Z,8.88
2023-05-05T07:02:58.659Z,8.95
2023-05-05T07:05:25.905Z,8.85
2023-05-05T07:07:56.573Z,8.68
2023-05-05T07:10:24.662Z,8.65
2023-05-05T07:12:52.403Z,8.20
2023-05-05T07:15:27.378Z,8.85
2023-05-05T07:17:55.750Z,9.15
2023-05-05T07:20:23.021Z,9.15
2023-05-05T07:22:50.330Z,9.43
2023-05-05T07:25:17.511Z,7.78
2023-05-05T07:27:44.818Z,8.40
2023-05-05T07:30:16.353Z,8.70
2023-05-05T07:32:45.788Z,8.50
2023-05-05T07:35:13.155Z,7.50
2023-05-05T07:37:40.392Z,7.60
2023-05-05T07:40:08.158Z,7.20
2023-05-05T07:42:35.887Z,7.63
2023-05-05T07:45:03.234Z,8.43
2023-05-05T07:47:30.469Z,7.95
2023-05-05T07:49:58.062Z,7.30
2023-05-05T07:52:43.684Z,7.55
2023-05-05T07:55:13.666Z,8.18
2023-05-05T07:57:40.990Z,8.45
2023-05-05T08:00:09.546Z,8.55
2023-05-05T08:02:37.208Z,9.00
2023-05-05T08:05:04.584Z,8.25
2023-05-05T08:07:31.818Z,8.70
2023-05-05T08:09:59.012Z,8.00
2023-05-05T08:12:26.171Z,7.88
2023-05-05T08:14:53.320Z,6.65
2023-05-05T08:17:20.523Z,7.70
2023-05-05T08:19:47.711Z,7.40
2023-05-05T08:22:14.930Z,7.70
2023-05-05T08:24:42.157Z,7.32
2023-05-05T08:27:09.434Z,7.43
2023-05-05T08:29:36.525Z,7.43
2023-05-05T08:32:03.682Z,7.53
2023-05-05T08:34:30.853Z,7.18
2023-05-05T08:36:58.202Z,7.15
2023-05-05T08:39:25.431Z,7.22
2023-05-05T08:41:52.609Z,7.47
2023-05-05T08:44:19.769Z,7.22
2023-05-05T08:46:47.180Z,7.72
2023-05-05T08:49:16.393Z,7.55
2023-05-05T08:51:44.358Z,7.07
2023-05-05T08:54:15.419Z,6.70
2023-05-05T08:56:43.464Z,7.03
2023-05-05T08:59:11.877Z,6.90
2023-05-05T09:01:39.219Z,7.20
2023-05-05T09:04:07.690Z,7.18
2023-05-05T09:06:35.793Z,6.88
2023-05-05T09:09:03.072Z,6.57
2023-05-05T09:11:30.307Z,6.95
2023-05-05T09:13:57.501Z,6.00
2023-05-05T09:16:24.742Z,6.82
2023-05-05T09:19:01.191Z,6.13
2023-05-05T09:21:29.244Z,6.07
2023-05-05T09:24:09.448Z,7.43
2023-05-05T09:26:40.453Z,5.53
2023-05-05T09:29:07.834Z,6.55
2023-05-05T09:31:36.209Z,6.30
2023-05-05T09:34:13.941Z,5.78
2023-05-05T09:36:45.423Z,5.75
2023-05-05T09:39:12.639Z,5.18
2023-05-05T09:41:43.864Z,5.38
2023-05-05T09:44:12.293Z,4.57
2023-05-05T09:46:49.802Z,5.07
2023-05-05T09:49:18.162Z,5.70
2023-05-05T09:51:46.078Z,5.00
2023-05-05T09:54:23.308Z,5.30
2023-05-05T09:56:52.255Z,5.13
2023-05-05T09:59:19.734Z,4.68
2023-05-05T10:01:47.460Z,4.55
2023-05-05T10:04:24.830Z,5.50
2023-05-05T10:06:52.079Z,5.22
2023-05-05T10:09:19.314Z,5.03
2023-05-05T10:11:47.503Z,4.30
2023-05-05T10:14:18.755Z,4.32
2023-05-05T10:16:52.617Z,5.07
2023-05-05T10:19:20.508Z,5.13
2023-05-05T10:21:49.949Z,4.88
2023-05-05T10:24:18.642Z,4.45
2023-05-05T10:26:46.991Z,4.68
2023-05-05T10:29:23.784Z,4.47
2023-05-05T10:31:52.600Z,4.85
2023-05-05T10:34:32.108Z,4.78
2023-05-05T10:37:00.232Z,4.47
2023-05-05T10:39:28.269Z,4.60
2023-05-05T10:41:55.544Z,4.15
2023-05-05T10:44:23.456Z,4.97
2023-05-05T10:46:50.824Z,4.50
2023-05-05T10:49:18.054Z,4.50
2023-05-05T10:51:50.886Z,4.68
2023-05-05T10:54:22.147Z,4.60
2023-05-05T10:56:49.691Z,4.55
2023-05-05T10:59:35.325Z,4.82
2023-05-05T11:02:02.546Z,5.13
2023-05-05T11:04:29.686Z,4.95
2023-05-05T11:07:10.429Z,4.70
2023-05-05T11:09:55.666Z,4.72
2023-05-05T11:12:22.901Z,4.50
2023-05-05T11:15:09.997Z,5.53
2023-05-05T11:17:46.864Z,5.93
2023-05-05T11:20:14.089Z,5.45
2023-05-05T11:23:16.038Z,4.78
2023-05-05T11:25:44.593Z,4.75
2023-05-05T11:28:12.780Z,5.07
2023-05-05T11:30:58.688Z,4.38
2023-05-05T11:33:26.383Z,4.95
2023-05-05T11:35:56.376Z,6.32
2023-05-05T11:38:43.793Z,5.40
2023-05-05T11:41:10.922Z,4.75
2023-05-05T11:43:38.189Z,5.25
2023-05-05T11:46:14.874Z,5.20
2023-05-05T11:48:48.970Z,4.32
2023-05-05T11:51:17.327Z,5.07
2023-05-05T11:53:45.108Z,5.07
2023-05-05T11:56:14.154Z,4.85
2023-05-05T11:58:41.928Z,4.97
2023-05-05T12:01:09.308Z,4.85
2023-05-05T12:03:37.384Z,5.43
2023-05-05T12:06:05.167Z,4.70
2023-05-05T12:08:38.495Z,4.65
2023-05-05T12:11:08.726Z,4.65
2023-05-05T12:13:36.135Z,4.13
2023-05-05T12:16:13.256Z,4.80
2023-05-05T12:18:40.959Z,5.50
2023-05-05T12:21:24.107Z,4.90
2023-05-05T12:23:51.258Z,4.88
2023-05-05T12:26:31.498Z,6.28
2023-05-05T12:29:01.581Z,5.70
2023-05-05T12:31:38.786Z,4.93
2023-05-05T12:34:06.851Z,5.50
2023-05-05T12:36:34.671Z,5.18
2023-05-05T12:39:02.018Z,5.70
2023-05-05T12:41:29.211Z,5.38
2023-05-05T12:43:57.179Z,5.82
2023-05-05T12:46:24.678Z,4.82
2023-05-05T12:49:04.584Z,4.88
2023-05-05T12:51:32.651Z,5.20
2023-05-05T12:54:04.850Z,5.13
2023-05-05T12:56:32.093Z,5.75
2023-05-05T12:58:59.480Z,5.60
2023-05-05T13:01:26.687Z,5.07
2023-05-05T13:04:06.316Z,5.35
2023-05-05T13:06:33.686Z,6.25
2023-05-05T13:09:00.826Z,5.80
2023-05-05T13:11:28.058Z,6.20
2023-05-05T13:13:55.258Z,7.38
2023-05-05T13:16:22.422Z,7.28
2023-05-05T13:18:50.732Z,7.82
2023-05-05T13:21:17.902Z,8.80
2023-05-05T13:23:45.663Z,9.15
2023-05-05T13:26:13.724Z,10.57
2023-05-05T13:28:41.262Z,10.93
2023-05-05T13:31:08.645Z,10.52
2023-05-05T13:33:36.041Z,10.43
2023-05-05T13:36:03.560Z,10.95
2023-05-05T13:38:33.927Z,10.60
2023-05-05T13:41:01.209Z,11.80
2023-05-05T13:43:28.460Z,9.63
2023-05-05T13:46:05.658Z,8.73
2023-05-05T13:48:42.742Z,9.52
2023-05-05T13:51:10.096Z,9.93
2023-05-05T13:53:37.280Z,8.65
2023-05-05T13:56:04.623Z,9.18
2023-05-05T13:58:31.782Z,8.63
2023-05-05T14:00:58.988Z,8.10
2023-05-05T14:03:26.767Z,8.63
2023-05-05T14:05:53.925Z,8.60
2023-05-05T14:08:21.210Z,8.35
2023-05-05T14:10:49.534Z,8.05
2023-05-05T14:13:17.478Z,8.02
2023-05-05T14:15:44.779Z,8.25
2023-05-05T14:18:11.925Z,8.90
2023-05-05T14:20:39.335Z,7.60
2023-05-05T14:23:06.482Z,8.07
2023-05-05T14:25:33.723Z,98.85
2023-05-05T14:28:02.552Z,157.52
2023-05-05T14:30:29.756Z,126.57
2023-05-05T14:32:56.952Z,89.53
2023-05-05T14:35:24.596Z,74.10
2023-05-05T14:37:51.744Z,58.90
2023-05-05T14:40:18.863Z,54.03
2023-05-05T14:42:45.998Z,111.95
2023-05-05T14:45:13.148Z,150.05
2023-05-05T14:47:40.404Z,169.40
2023-05-05T14:50:09.678Z,133.63
2023-05-05T14:52:39.248Z,104.07
2023-05-05T14:55:07.391Z,94.03
2023-05-05T14:57:35.005Z,89.10
2023-05-05T15:00:02.296Z,83.22
2023-05-05T15:02:29.606Z,77.65
2023-05-05T15:04:56.811Z,75.35
2023-05-05T15:07:28.291Z,76.82
2023-05-05T15:09:58.580Z,73.05
2023-05-05T15:12:26.047Z,70.90
2023-05-05T15:14:53.316Z,72.82
2023-05-05T15:17:20.527Z,68.50
2023-05-05T15:19:47.680Z,70.45
2023-05-05T15:22:14.949Z,69.40
2023-05-05T15:24:42.434Z,68.25
2023-05-05T15:27:09.649Z,69.82
2023-05-05T15:29:36.831Z,67.25
2023-05-05T15:32:04.160Z,65.65
2023-05-05T15:34:31.340Z,66.20
2023-05-05T15:36:58.548Z,67.85
2023-05-05T15:39:25.774Z,65.88
2023-05-05T15:41:52.928Z,63.88
2023-05-05T15:44:20.246Z,62.75
2023-05-05T15:46:50.582Z,62.53
2023-05-05T15:49:17.939Z,64.50
2023-05-05T15:51:45.204Z,61.47
2023-05-05T15:54:12.391Z,61.97
2023-05-05T15:56:39.568Z,60.35
2023-05-05T15:59:07.487Z,61.53
2023-05-05T16:01:36.241Z,58.22
2023-05-05T16:04:03.669Z,58.35
2023-05-05T16:06:30.880Z,56.38
2023-05-05T16:08:58.669Z,53.95
2023-05-05T16:11:29.011Z,52.20
2023-05-05T16:13:56.266Z,55.42
2023-05-05T16:16:23.478Z,54.67
2023-05-05T16:18:50.766Z,50.78
2023-05-05T16:21:17.929Z,49.53
2023-05-05T16:23:45.056Z,46.78
2023-05-05T16:26:12.315Z,45.35
2023-05-05T16:28:39.579Z,44.00
2023-05-05T16:31:06.824Z,43.08
2023-05-05T16:33:36.017Z,41.92
2023-05-05T16:36:03.193Z,40.10
2023-05-05T16:38:31.015Z,38.08
2023-05-05T16:40:58.248Z,35.17
2023-05-05T16:43:25.673Z,34.42
2023-05-05T16:45:52.968Z,33.63
2023-05-05T16:48:20.205Z,31.98
2023-05-05T16:50:47.373Z,29.92
2023-05-05T16:53:14.609Z,26.45
2023-05-05T16:55:41.757Z,24.65
2023-05-05T16:58:08.919Z,19.80
2023-05-05T17:00:36.173Z,23.88
2023-05-05T17:03:03.417Z,21.38
2023-05-05T17:05:30.705Z,19.98
2023-05-05T17:07:57.912Z,20.33
2023-05-05T17:10:25.054Z,20.50
2023-05-05T17:12:52.352Z,20.05
2023-05-05T17:15:19.561Z,21.10
2023-05-05T17:17:46.725Z,22.98
2023-05-05T17:20:13.947Z,21.17
2023-05-05T17:22:41.121Z,22.67
2023-05-05T17:25:08.627Z,22.13
2023-05-05T17:27:35.936Z,22.75
2023-05-05T17:30:03.109Z,24.02
2023-05-05T17:32:30.381Z,23.40
2023-05-05T17:34:57.549Z,22.98
2023-05-05T17:37:24.730Z,23.73
2023-05-05T17:39:51.950Z,24.52
2023-05-05T17:42:22.858Z,23.45
2023-05-05T17:44:50.623Z,23.13
2023-05-05T17:47:22.461Z,22.98
2023-05-05T17:49:49.871Z,24.30
2023-05-05T17:52:17.033Z,23.27
2023-05-05T17:54:44.245Z,23.98
2023-05-05T17:57:11.381Z,23.83
2023-05-05T17:59:38.701Z,22.60
2023-05-05T18:02:05.862Z,22.77
2023-05-05T18:04:33.088Z,23.15
2023-05-05T18:07:00.232Z,22.88
2023-05-05T18:09:27.392Z,21.08
2023-05-05T18:11:54.666Z,22.27
2023-05-05T18:14:23.701Z,20.85
2023-05-05T18:16:52.455Z,19.88
2023-05-05T18:19:20.896Z,21.05
2023-05-05T18:21:52.411Z,20.33
2023-05-05T18:24:20.665Z,20.33
2023-05-05T18:26:49.526Z,19.60
2023-05-05T18:29:17.245Z,20.77
2023-05-05T18:31:44.415Z,21.38
2023-05-05T18:34:11.689Z,19.58
2023-05-05T18:36:38.914Z,19.50
2023-05-05T18:39:06.136Z,18.40
2023-05-05T18:41:33.330Z,18.63
2023-05-05T18:44:01.828Z,18.73
2023-05-05T18:46:29.148Z,18.88
2023-05-05T18:48:56.342Z,17.92
2023-05-05T18:51:23.493Z,17.75
2023-05-05T18:53:50.641Z,17.73
2023-05-05T18:56:17.793Z,17.02
2023-05-05T18:58:44.863Z,17.00
2023-05-05T19:01:12.101Z,17.40
2023-05-05T19:03:39.280Z,16.77
2023-05-05T19:06:07.032Z,18.10
2023-05-05T19:08:34.254Z,18.50
2023-05-05T19:11:01.459Z,18.20
2023-05-05T19:13:28.606Z,17.33
2023-05-05T19:15:57.188Z,17.27
2023-05-05T19:18:24.756Z,18.42
2023-05-05T19:20:51.837Z,17.60
2023-05-05T19:23:18.974Z,17.88
2023-05-05T19:25:46.427Z,16.63
2023-05-05T19:28:13.688Z,17.73
2023-05-05T19:30:40.819Z,16.95
2023-05-05T19:33:08.132Z,17.20
2023-05-05T19:35:35.384Z,16.70
2023-05-05T19:38:02.572Z,16.75
2023-05-05T19:40:29.769Z,16.50
2023-05-05T19:42:56.972Z,16.52
2023-05-05T19:45:24.113Z,16.63
2023-05-05T19:47:51.624Z,17.08
2023-05-05T19:50:18.938Z,16.05
2023-05-05T19:52:46.076Z,15.75
2023-05-05T19:55:13.380Z,15.70
2023-05-05T19:57:41.057Z,15.20
2023-05-05T20:00:10.444Z,15.85
2023-05-05T20:02:38.058Z,15.52
2023-05-05T20:05:05.494Z,15.88
2023-05-05T20:07:32.657Z,16.00
2023-05-05T20:10:00.704Z,14.73
2023-05-05T20:12:27.914Z,15.88
2023-05-05T20:14:55.470Z,15.20
2023-05-05T20:17:23.729Z,15.60
2023-05-05T20:19:50.968Z,14.43
2023-05-05T20:22:18.347Z,13.95
2023-05-05T20:24:45.645Z,14.70
2023-05-05T20:27:12.906Z,15.88
2023-05-05T20:29:40.047Z,15.32
2023-05-05T20:32:07.243Z,16.02
2023-05-05T20:34:34.381Z,14.48
2023-05-05T20:37:01.591Z,13.77
2023-05-05T20:39:28.824Z,14.32
2023-05-05T20:41:55.987Z,13.77
2023-05-05T20:44:23.123Z,13.20
2023-05-05T20:46:50.522Z,13.32
2023-05-05T20:49:17.709Z,13.85
2023-05-05T20:51:44.849Z,12.90
2023-05-05T20:54:12.094Z,13.55
2023-05-05T20:56:39.271Z,13.60
2023-05-05T20:59:08.542Z,12.77
2023-05-05T21:01:36.064Z,12.35
2023-05-05T21:04:03.229Z,13.10
2023-05-05T21:06:30.590Z,13.20
2023-05-05T21:08:57.890Z,13.45
2023-05-05T21:11:25.155Z,13.30
2023-05-05T21:13:52.350Z,12.20
2023-05-05T21:16:19.547Z,13.77
2023-05-05T21:18:47.309Z,12.10
2023-05-05T21:21:14.455Z,11.90
2023-05-05T21:23:41.604Z,13.73
2023-05-05T21:26:08.860Z,11.88
2023-05-05T21:28:36.207Z,12.70
2023-05-05T21:31:20.294Z,11.95
2023-05-05T21:33:48.836Z,12.40
2023-05-05T21:36:17.559Z,13.55
2023-05-05T21:38:44.795Z,13.27
2023-05-05T21:41:12.063Z,12.77
2023-05-05T21:43:39.199Z,13.15
2023-05-05T21:46:06.462Z,12.32
2023-05-05T21:48:33.792Z,12.55
2023-05-05T21:51:01.019Z,12.13
2023-05-05T21:53:28.201Z,12.65
2023-05-05T21:55:55.465Z,12.18
2023-05-05T21:58:24.707Z,13.23
2023-05-05T22:00:52.382Z,13.15
2023-05-05T22:03:19.843Z,12.48
2023-05-05T22:05:47.113Z,11.32
2023-05-05T22:08:14.246Z,12.75
2023-05-05T22:10:41.441Z,13.13
2023-05-05T22:13:10.429Z,12.18
2023-05-05T22:15:45.908Z,12.63
2023-05-05T22:18:14.168Z,11.00
2023-05-05T22:20:41.435Z,11.60
2023-05-05T22:23:08.731Z,11.50
2023-05-05T22:25:36.253Z,11.10
2023-05-05T22:28:03.597Z,11.45
2023-05-05T22:30:30.839Z,11.93
2023-05-05T22:32:58.003Z,11.25
2023-05-05T22:35:25.178Z,10.55
2023-05-05T22:37:52.414Z,11.45
2023-05-05T22:40:19.638Z,11.05
2023-05-05T22:42:46.825Z,11.13
2023-05-05T22:45:14.104Z,10.50
2023-05-05T22:47:41.393Z,10.35
2023-05-05T22:50:09.142Z,10.40
2023-05-05T22:52:36.591Z,9.70
2023-05-05T22:55:03.780Z,10.23
2023-05-05T22:57:31.139Z,10.60
2023-05-05T22:59:58.299Z,10.65
2023-05-05T23:02:26.621Z,9.75
2023-05-05T23:04:54.012Z,10.40
2023-05-05T23:07:21.436Z,9.65
2023-05-05T23:09:48.711Z,9.63
2023-05-05T23:12:15.858Z,9.48
2023-05-05T23:14:43.081Z,9.73
2023-05-05T23:17:10.366Z,9.25
2023-05-05T23:19:37.792Z,9.70
2023-05-05T23:22:05.153Z,9.65
2023-05-05T23:24:32.351Z,9.85
2023-05-05T23:27:02.071Z,9.13
2023-05-05T23:29:29.338Z,9.00
2023-05-05T23:31:56.923Z,8.45
2023-05-05T23:34:24.425Z,9.05
2023-05-05T23:36:51.632Z,8.95
2023-05-05T23:39:18.869Z,8.73
2023-05-05T23:41:46.116Z,8.98
2023-05-05T23:44:13.643Z,8.75
2023-05-05T23:46:40.997Z,9.02
2023-05-05T23:49:08.258Z,9.80
2023-05-05T23:51:35.406Z,8.55
2023-05-05T23:54:03.605Z,8.95
2023-05-05T23:56:31.025Z,8.65
2023-05-05T23:58:58.179Z,8.32
